Time;durP1;ratioP1;P1;durP2;ratioP2;P2;SDS_P1;SDS_P2;PMS_P1;PMS_P2;Temp;Humidity;BMP_temperature;BMP_pressure;BME280_temperature;BME280_humidity;BME280_pressure;Samples;Min_cycle;Max_cycle;Signal;HPM_P1;HPM_P2
2021/05/22 00:02:22;;;;;;;1.03;0.93;;;16.60;53.50;;;;;;6273984;28;20948;-61
2021/05/22 00:05:26;;;;;;;2.67;1.50;;;16.60;53.50;;;;;;6273893;28;20465;-60
2021/05/22 00:08:29;;;;;;;2.37;1.40;;;16.60;53.80;;;;;;6274464;28;20806;-61
2021/05/22 00:11:33;;;;;;;1.80;1.20;;;16.60;54.00;;;;;;6273737;28;20790;-60
2021/05/22 00:14:36;;;;;;;1.87;1.37;;;16.70;54.20;;;;;;6275401;28;20470;-60
2021/05/22 00:17:40;;;;;;;5.03;1.40;;;16.60;53.90;;;;;;6275665;28;20499;-60
2021/05/22 00:20:42;;;;;;;1.43;1.33;;;16.60;54.00;;;;;;6284951;28;20468;-60
2021/05/22 00:23:45;;;;;;;1.67;1.20;;;16.40;54.80;;;;;;6303610;28;20468;-60
2021/05/22 00:26:48;;;;;;;2.50;1.20;;;16.30;55.10;;;;;;6315187;28;20797;-61
2021/05/22 00:29:51;;;;;;;2.33;1.27;;;16.30;55.20;;;;;;6299573;28;20485;-61
2021/05/22 00:32:54;;;;;;;3.80;1.50;;;16.20;55.50;;;;;;6299510;28;20461;-61
2021/05/22 00:35:57;;;;;;;3.20;1.57;;;16.10;55.70;;;;;;6299881;28;20481;-61
2021/05/22 00:39:00;;;;;;;4.23;1.50;;;16.10;55.70;;;;;;6300041;28;20535;-61
2021/05/22 00:42:04;;;;;;;1.40;1.07;;;16.00;55.90;;;;;;6300113;28;20469;-62
2021/05/22 00:45:18;;;;;;;3.30;1.30;;;15.90;56.40;;;;;;6300106;28;20468;-62
2021/05/22 00:48:22;;;;;;;3.73;2.00;;;15.90;56.50;;;;;;6300267;28;20473;-61
2021/05/22 00:51:24;;;;;;;2.17;1.37;;;16.00;56.80;;;;;;6299993;28;20479;-60
2021/05/22 00:54:27;;;;;;;2.23;1.17;;;16.10;56.70;;;;;;6299795;28;20469;-60
2021/05/22 00:57:31;;;;;;;1.80;1.33;;;16.20;56.60;;;;;;6299943;28;20476;-60
2021/05/22 01:00:39;;;;;;;2.13;1.10;;;16.20;56.80;;;;;;6299920;28;20484;-60
2021/05/22 01:03:45;;;;;;;2.27;1.20;;;16.30;56.70;;;;;;6299869;28;20816;-60
2021/05/22 01:06:48;;;;;;;1.23;1.10;;;16.30;56.40;;;;;;6299602;28;20801;-60
2021/05/22 01:09:53;;;;;;;1.47;1.00;;;16.30;56.70;;;;;;6299357;28;20813;-60
2021/05/22 01:12:56;;;;;;;1.50;1.10;;;16.40;56.90;;;;;;6299678;28;20984;-60
2021/05/22 01:15:59;;;;;;;1.97;1.03;;;16.30;56.20;;;;;;6299540;28;20473;-60
2021/05/22 01:19:05;;;;;;;1.80;1.20;;;16.30;56.30;;;;;;6299556;28;20805;-60
2021/05/22 01:22:09;;;;;;;1.67;1.13;;;16.30;56.40;;;;;;6299101;28;20818;-60
2021/05/22 01:25:24;;;;;;;1.90;1.33;;;16.30;57.20;;;;;;6315163;28;20491;-60
2021/05/22 01:28:28;;;;;;;2.90;1.37;;;16.30;57.00;;;;;;6324383;28;20966;-60
2021/05/22 01:31:33;;;;;;;1.77;1.00;;;16.30;56.80;;;;;;6324383;28;20491;-60
2021/05/22 01:34:36;;;;;;;11.30;2.37;;;16.30;57.10;;;;;;6324056;28;20475;-60
2021/05/22 01:37:39;;;;;;;4.40;1.20;;;16.20;56.80;;;;;;6324592;28;20480;-60
2021/05/22 01:40:43;;;;;;;2.20;1.20;;;16.20;57.30;;;;;;6324033;28;20480;-60
2021/05/22 01:43:50;;;;;;;1.40;1.30;;;16.20;57.80;;;;;;6324166;28;20472;-61
2021/05/22 01:46:54;;;;;;;2.03;1.17;;;16.20;58.00;;;;;;6324201;28;20479;-60
2021/05/22 01:49:57;;;;;;;1.77;1.37;;;16.30;58.40;;;;;;6324283;28;20971;-60
2021/05/22 01:53:05;;;;;;;3.90;2.00;;;16.20;58.70;;;;;;6324171;28;20916;-61
2021/05/22 01:56:10;;;;;;;2.90;1.47;;;16.20;58.90;;;;;;6324293;28;20444;-61
2021/05/22 01:59:12;;;;;;;4.10;1.53;;;16.20;59.50;;;;;;6324200;28;20428;-61
2021/05/22 02:02:15;;;;;;;3.43;1.23;;;16.20;59.50;;;;;;6323633;28;20444;-61
2021/05/22 02:05:20;;;;;;;1.87;1.20;;;16.10;59.90;;;;;;6324009;28;20915;-61
2021/05/22 02:08:25;;;;;;;2.63;2.43;;;16.10;60.60;;;;;;6329065;28;20547;-61
2021/05/22 02:11:30;;;;;;;2.10;1.60;;;16.00;61.00;;;;;;6329002;28;20820;-61
2021/05/22 02:14:35;;;;;;;1.80;1.37;;;15.90;61.20;;;;;;6329045;28;20468;-61
2021/05/22 02:17:38;;;;;;;2.90;1.20;;;15.80;61.60;;;;;;6328792;28;20464;-61
2021/05/22 02:20:42;;;;;;;2.07;1.30;;;15.90;62.10;;;;;;6328801;28;20476;-61
2021/05/22 02:23:47;;;;;;;1.20;1.10;;;15.90;62.30;;;;;;6316795;28;20479;-61
2021/05/22 02:26:52;;;;;;;2.60;1.63;;;15.90;62.70;;;;;;6328661;28;20465;-61
2021/05/22 02:29:55;;;;;;;1.60;1.50;;;15.80;63.10;;;;;;6328136;28;20483;-61
2021/05/22 02:32:58;;;;;;;1.50;1.40;;;15.80;63.70;;;;;;6328479;28;20798;-61
2021/05/22 02:36:01;;;;;;;2.30;1.60;;;15.80;64.40;;;;;;6328318;28;20582;-60
2021/05/22 02:39:06;;;;;;;2.60;1.57;;;15.70;64.70;;;;;;6327992;28;21060;-60
2021/05/22 02:42:15;;;;;;;1.97;1.63;;;15.80;66.10;;;;;;6328566;28;20468;-61
2021/05/22 02:45:18;;;;;;;2.37;1.60;;;15.70;65.40;;;;;;6328598;28;20468;-61
2021/05/22 02:48:23;;;;;;;2.03;1.80;;;15.70;66.10;;;;;;6327971;28;20487;-61
2021/05/22 02:51:26;;;;;;;2.33;1.30;;;15.70;66.40;;;;;;6328363;28;20487;-60
2021/05/22 02:54:51;;;;;;;1.47;1.20;;;15.70;66.30;;;;;;6328429;28;20521;-61
2021/05/22 02:57:55;;;;;;;1.83;1.30;;;15.60;66.10;;;;;;6323417;28;20464;-61
2021/05/22 03:00:58;;;;;;;1.60;1.50;;;15.60;66.10;;;;;;6304613;28;20469;-61
2021/05/22 03:04:01;;;;;;;2.10;1.40;;;15.50;67.00;;;;;;6302133;28;20471;-61
2021/05/22 03:07:04;;;;;;;1.40;1.30;;;15.50;67.30;;;;;;6302600;28;20497;-60
2021/05/22 03:10:09;;;;;;;3.70;3.40;;;15.50;67.40;;;;;;6302426;28;20468;-60
2021/05/22 03:13:12;;;;;;;3.53;1.00;;;15.50;67.10;;;;;;6302219;28;20806;-61
2021/05/22 03:16:16;;;;;;;3.20;1.20;;;15.50;67.00;;;;;;6302304;28;20465;-61
2021/05/22 03:19:18;;;;;;;1.27;1.17;;;15.50;67.30;;;;;;6302333;28;20961;-61
2021/05/22 03:22:22;;;;;;;2.00;1.30;;;15.50;67.70;;;;;;6302327;28;20500;-60
2021/05/22 03:25:25;;;;;;;2.40;1.27;;;15.40;67.80;;;;;;6319494;28;20475;-61
2021/05/22 03:28:29;;;;;;;1.43;1.27;;;15.50;66.70;;;;;;6327468;28;20474;-61
2021/05/22 03:31:32;;;;;;;2.47;1.30;;;15.40;66.00;;;;;;6326804;28;20476;-61
2021/05/22 03:34:34;;;;;;;2.40;1.40;;;15.40;65.90;;;;;;6327307;28;20474;-60
2021/05/22 03:37:37;;;;;;;2.30;1.30;;;15.50;66.00;;;;;;6327355;28;20476;-60
2021/05/22 03:40:40;;;;;;;2.67;1.60;;;15.50;66.50;;;;;;6326824;28;20513;-62
2021/05/22 03:43:43;;;;;;;2.40;1.10;;;15.60;67.40;;;;;;6327241;28;20468;-61
2021/05/22 03:46:46;;;;;;;2.30;1.23;;;15.60;67.90;;;;;;6326768;28;20472;-61
2021/05/22 03:49:49;;;;;;;1.93;1.40;;;15.60;68.00;;;;;;6327157;28;20483;-61
2021/05/22 03:52:52;;;;;;;2.43;1.20;;;15.60;67.80;;;;;;6326418;28;20475;-60
2021/05/22 03:55:54;;;;;;;4.00;1.00;;;15.60;67.00;;;;;;6327055;28;20806;-61
2021/05/22 03:58:58;;;;;;;1.93;1.17;;;15.70;67.90;;;;;;6326410;28;20464;-60
2021/05/22 04:02:00;;;;;;;1.13;1.03;;;15.70;68.40;;;;;;6321953;28;20557;-60
2021/05/22 04:05:05;;;;;;;2.33;1.63;;;15.70;69.00;;;;;;6321325;28;20460;-61
2021/05/22 04:08:07;;;;;;;2.33;1.83;;;15.80;69.30;;;;;;6326791;28;20441;-60
2021/05/22 04:11:10;;;;;;;1.87;1.70;;;15.80;69.40;;;;;;6325895;28;20490;-60
2021/05/22 04:14:14;;;;;;;4.70;2.10;;;15.90;69.10;;;;;;6326022;28;20934;-60
2021/05/22 04:17:17;;;;;;;2.53;1.63;;;15.90;69.30;;;;;;6326126;28;20487;-60
2021/05/22 04:20:20;;;;;;;2.43;1.73;;;15.90;69.90;;;;;;6325578;28;20494;-60
2021/05/22 04:23:22;;;;;;;4.07;1.83;;;16.00;70.20;;;;;;6321112;28;20791;-60
2021/05/22 04:26:27;;;;;;;2.20;1.67;;;15.90;70.60;;;;;;6325800;28;20456;-60
2021/05/22 04:29:33;;;;;;;2.30;1.63;;;16.00;71.00;;;;;;6325103;28;20807;-60
2021/05/22 04:32:36;;;;;;;1.83;1.43;;;16.00;70.80;;;;;;6325698;28;20475;-60
2021/05/22 04:35:39;;;;;;;2.00;1.30;;;16.10;71.70;;;;;;6325653;28;20479;-60
2021/05/22 04:38:41;;;;;;;2.00;1.83;;;16.10;70.30;;;;;;6325442;28;20475;-61
2021/05/22 04:41:44;;;;;;;3.07;1.63;;;16.20;70.40;;;;;;6325408;28;20841;-60
2021/05/22 04:44:48;;;;;;;2.23;1.90;;;16.20;70.60;;;;;;6325456;28;20479;-60
2021/05/22 04:47:51;;;;;;;3.73;1.60;;;16.20;70.90;;;;;;6326319;28;20495;-60
2021/05/22 04:50:55;;;;;;;2.60;1.57;;;16.20;69.60;;;;;;6325169;28;20479;-60
2021/05/22 04:54:03;;;;;;;3.40;1.87;;;16.20;70.40;;;;;;6325166;28;20974;-60
2021/05/22 04:57:06;;;;;;;3.07;2.10;;;16.20;70.50;;;;;;6325580;28;20475;-60
2021/05/22 05:00:11;;;;;;;4.10;1.73;;;16.30;70.50;;;;;;6325123;28;20472;-60
2021/05/22 05:03:14;;;;;;;2.67;1.60;;;16.20;71.50;;;;;;6325516;28;20481;-60
2021/05/22 05:06:17;;;;;;;3.10;1.53;;;16.30;70.60;;;;;;6315431;28;20480;-60
2021/05/22 05:09:20;;;;;;;2.67;2.00;;;16.50;71.00;;;;;;6324797;28;20483;-60
2021/05/22 05:12:23;;;;;;;2.30;1.33;;;16.60;70.80;;;;;;6324661;28;20468;-60
2021/05/22 05:15:27;;;;;;;5.90;1.60;;;16.70;70.30;;;;;;6324966;28;20547;-61
2021/05/22 05:18:30;;;;;;;3.23;1.30;;;16.80;69.40;;;;;;6324420;28;20487;-60
2021/05/22 05:21:34;;;;;;;3.70;1.40;;;16.80;67.60;;;;;;6324454;28;20811;-60
2021/05/22 05:24:37;;;;;;;2.50;1.10;;;16.90;67.30;;;;;;6319622;28;20530;-61
2021/05/22 05:27:40;;;;;;;2.20;2.00;;;16.90;69.70;;;;;;6324695;28;20487;-61
2021/05/22 05:30:44;;;;;;;5.57;2.90;;;16.70;69.50;;;;;;6323942;28;20533;-61
2021/05/22 05:33:46;;;;;;;6.07;2.53;;;16.50;70.70;;;;;;6324843;28;20464;-61
2021/05/22 05:36:49;;;;;;;4.87;2.23;;;16.40;70.70;;;;;;6324343;28;20476;-60
2021/05/22 05:39:52;;;;;;;2.37;2.07;;;16.40;71.20;;;;;;6324064;28;20476;-61
2021/05/22 05:42:55;;;;;;;3.00;2.00;;;16.40;72.80;;;;;;6322573;28;20468;-61
2021/05/22 05:45:58;;;;;;;3.67;1.83;;;16.40;73.30;;;;;;6323006;28;20479;-61
2021/05/22 05:49:01;;;;;;;5.23;2.77;;;16.40;73.30;;;;;;6323711;28;20472;-61
2021/05/22 05:52:04;;;;;;;5.80;2.40;;;16.30;72.30;;;;;;6323054;28;20916;-61
2021/05/22 05:55:08;;;;;;;3.90;2.20;;;16.20;74.50;;;;;;6323619;28;20483;-61
2021/05/22 05:58:10;;;;;;;3.70;1.73;;;16.00;75.50;;;;;;6322174;28;20469;-61
2021/05/22 06:01:14;;;;;;;3.07;2.27;;;15.80;76.80;;;;;;6298408;28;20477;-61
2021/05/22 06:04:17;;;;;;;3.93;2.50;;;15.60;77.50;;;;;;6297102;28;20473;-61
2021/05/22 06:07:19;;;;;;;5.07;2.20;;;15.50;79.20;;;;;;6297997;28;20972;-62
2021/05/22 06:10:22;;;;;;;2.93;2.40;;;15.40;78.70;;;;;;6297150;28;20473;-61
2021/05/22 06:13:26;;;;;;;2.40;2.10;;;15.30;79.70;;;;;;6296800;28;20536;-61
2021/05/22 06:16:33;;;;;;;3.07;2.40;;;15.30;80.10;;;;;;6293714;28;20795;-61
2021/05/22 06:19:35;;;;;;;2.17;1.97;;;15.30;81.00;;;;;;6296315;28;20461;-61
2021/05/22 06:22:38;;;;;;;5.10;2.67;;;15.30;82.00;;;;;;6296972;28;20480;-61
2021/05/22 06:25:41;;;;;;;3.73;1.87;;;15.30;82.60;;;;;;6296750;28;20890;-61
2021/05/22 06:28:44;;;;;;;2.90;1.93;;;15.30;82.80;;;;;;6297262;28;20472;-61
2021/05/22 06:31:48;;;;;;;2.67;1.93;;;15.30;83.70;;;;;;6296301;28;20488;-62
2021/05/22 06:34:50;;;;;;;2.63;1.80;;;15.40;84.00;;;;;;6293739;28;20465;-61
2021/05/22 06:37:53;;;;;;;2.10;1.40;;;15.40;85.20;;;;;;6296585;28;20472;-60
2021/05/22 06:40:56;;;;;;;1.60;1.40;;;15.40;85.00;;;;;;6297926;28;20495;-60
2021/05/22 06:43:59;;;;;;;1.40;1.30;;;15.50;84.70;;;;;;6297287;28;20464;-60
2021/05/22 06:47:02;;;;;;;1.37;1.27;;;15.60;83.70;;;;;;6296287;28;20618;-60
2021/05/22 06:50:06;;;;;;;1.30;1.20;;;15.60;82.80;;;;;;6297308;28;20468;-61
2021/05/22 06:53:09;;;;;;;1.13;1.10;;;15.60;83.40;;;;;;6300489;28;20476;-61
2021/05/22 06:56:12;;;;;;;2.90;1.77;;;15.60;83.10;;;;;;6302442;28;20459;-61
2021/05/22 06:59:14;;;;;;;2.83;1.43;;;15.60;82.30;;;;;;6301817;28;20939;-60
2021/05/22 07:02:18;;;;;;;1.30;0.87;;;15.50;81.10;;;;;;6302363;28;20448;-62
2021/05/22 07:05:21;;;;;;;2.30;0.83;;;15.50;81.00;;;;;;6302125;28;20441;-62
2021/05/22 07:08:23;;;;;;;0.70;0.70;;;15.40;80.50;;;;;;6302337;28;20791;-61
2021/05/22 07:11:26;;;;;;;0.70;0.60;;;15.30;80.90;;;;;;6282078;28;20475;-61
2021/05/22 07:14:29;;;;;;;0.70;0.60;;;15.20;82.20;;;;;;6301886;28;20479;-60
2021/05/22 07:17:33;;;;;;;2.53;2.33;;;15.20;82.60;;;;;;6301567;28;20614;-60
2021/05/22 07:20:36;;;;;;;1.40;0.77;;;15.10;86.20;;;;;;6302066;28;20476;-60
2021/05/22 07:23:39;;;;;;;4.23;1.23;;;15.10;86.80;;;;;;6303747;28;20519;-60
2021/05/22 07:26:41;;;;;;;0.87;0.80;;;15.10;88.10;;;;;;6326803;28;20464;-60
2021/05/22 07:29:50;;;;;;;0.93;0.80;;;15.00;88.80;;;;;;6326342;28;20795;-60
2021/05/22 07:32:54;;;;;;;1.60;1.23;;;14.80;89.30;;;;;;6326637;28;20604;-60
2021/05/22 07:35:57;;;;;;;1.00;0.80;;;14.80;90.70;;;;;;6326638;28;20476;-60
2021/05/22 07:39:00;;;;;;;1.63;1.17;;;14.80;91.40;;;;;;6326269;28;20464;-59
2021/05/22 07:42:03;;;;;;;1.23;1.13;;;14.90;91.90;;;;;;6326288;28;20471;-60
2021/05/22 07:45:09;;;;;;;2.30;1.37;;;14.90;91.80;;;;;;6326240;28;20546;-61
2021/05/22 07:48:13;;;;;;;1.10;0.90;;;14.90;91.60;;;;;;6326459;28;20464;-60
2021/05/22 07:51:16;;;;;;;1.20;0.73;;;14.90;91.50;;;;;;6325899;28;20991;-58
2021/05/22 07:54:19;;;;;;;1.33;0.50;;;14.80;91.30;;;;;;6326067;28;20460;-59
2021/05/22 07:57:22;;;;;;;0.73;0.73;;;14.80;91.40;;;;;;6325805;28;20464;-58
2021/05/22 08:00:25;;;;;;;1.60;1.30;;;14.80;91.50;;;;;;6325601;28;20490;-61
2021/05/22 08:03:31;;;;;;;0.80;0.80;;;14.80;91.90;;;;;;6324662;28;20864;-60
2021/05/22 08:06:49;;;;;;;1.13;1.03;;;14.90;92.60;;;;;;6325954;28;20464;-60
2021/05/22 08:09:51;;;;;;;1.53;1.03;;;15.00;92.40;;;;;;6324304;28;20483;-60
2021/05/22 08:12:54;;;;;;;1.40;1.10;;;15.00;92.60;;;;;;6299304;28;20727;-60
2021/05/22 08:15:57;;;;;;;1.20;1.20;;;15.10;93.10;;;;;;6285408;28;20472;-60
2021/05/22 08:19:01;;;;;;;1.10;1.00;;;15.30;93.40;;;;;;6296829;28;20469;-60
2021/05/22 08:22:04;;;;;;;0.93;0.90;;;15.30;93.30;;;;;;6297241;28;20465;-60
2021/05/22 08:25:13;;;;;;;2.10;1.90;;;15.40;93.20;;;;;;6300426;28;20462;-60
2021/05/22 08:28:21;;;;;;;4.27;3.83;;;15.50;92.70;;;;;;6298724;28;20800;-60
2021/05/22 08:31:24;;;;;;;5.90;4.67;;;15.60;92.50;;;;;;6296762;28;20798;-60
2021/05/22 08:34:27;;;;;;;3.97;2.00;;;15.60;93.00;;;;;;6299371;28;20476;-62
2021/05/22 08:37:33;;;;;;;2.87;1.20;;;15.60;93.40;;;;;;6298644;28;20461;-60
2021/05/22 08:40:36;;;;;;;1.23;1.03;;;15.60;93.80;;;;;;6298870;28;20603;-60
2021/05/22 08:43:38;;;;;;;1.43;1.20;;;15.60;93.20;;;;;;6297906;28;20458;-60
2021/05/22 08:46:41;;;;;;;1.50;1.40;;;15.60;93.00;;;;;;6295928;28;20465;-60
2021/05/22 08:49:45;;;;;;;2.03;1.20;;;15.60;93.30;;;;;;6298418;28;20475;-61
2021/05/22 08:52:49;;;;;;;0.80;0.70;;;15.70;92.70;;;;;;6297962;28;20469;-60
2021/05/22 08:55:52;;;;;;;1.93;1.33;;;15.80;91.90;;;;;;6298338;28;20977;-61
2021/05/22 08:58:55;;;;;;;1.03;0.93;;;15.70;92.90;;;;;;6299444;28;20477;-61
2021/05/22 09:02:00;;;;;;;1.53;1.43;;;15.80;94.00;;;;;;6298731;28;20481;-61
2021/05/22 09:05:14;;;;;;;1.43;1.20;;;15.70;94.20;;;;;;6299211;28;20457;-60
2021/05/22 09:08:17;;;;;;;3.03;1.70;;;15.60;94.50;;;;;;6298888;28;20439;-60
2021/05/22 09:11:20;;;;;;;2.40;1.73;;;15.30;95.50;;;;;;6299268;28;20936;-60
2021/05/22 09:14:45;;;;;;;2.10;1.70;;;15.10;96.30;;;;;;6299003;28;20472;-61
2021/05/22 09:17:51;;;;;;;2.00;1.80;;;14.90;97.40;;;;;;6298992;28;20469;-60
2021/05/22 09:20:58;;;;;;;2.47;1.93;;;15.00;97.90;;;;;;6298690;28;20485;-60
2021/05/22 09:24:02;;;;;;;2.60;1.90;;;14.90;98.00;;;;;;6304892;28;20467;-59
2021/05/22 09:27:09;;;;;;;3.43;2.03;;;15.00;98.30;;;;;;6323884;28;20472;-59
2021/05/22 09:30:14;;;;;;;2.60;1.90;;;15.20;97.90;;;;;;6324398;28;20479;-61
2021/05/22 09:33:19;;;;;;;1.70;1.60;;;15.20;97.90;;;;;;6324427;28;20468;-61
2021/05/22 09:36:23;;;;;;;1.70;1.60;;;15.20;99.00;;;;;;6324707;28;20476;-61
2021/05/22 09:39:26;;;;;;;2.30;1.77;;;15.30;98.50;;;;;;6310378;28;22290;-62
2021/05/22 09:42:31;;;;;;;3.70;1.83;;;15.20;98.50;;;;;;6298271;28;20571;-60
2021/05/22 09:45:35;;;;;;;1.53;1.40;;;15.20;98.90;;;;;;6298279;28;20773;-60
2021/05/22 09:48:38;;;;;;;3.20;2.00;;;15.30;98.60;;;;;;6298935;28;20472;-60
2021/05/22 09:51:56;;;;;;;1.97;1.50;;;15.30;98.80;;;;;;6299124;28;20469;-60
2021/05/22 09:55:01;;;;;;;3.00;1.70;;;15.30;98.70;;;;;;6299244;28;20473;-60
2021/05/22 09:58:03;;;;;;;3.77;2.27;;;15.40;98.40;;;;;;6299032;28;20536;-60
2021/05/22 10:01:06;;;;;;;1.47;1.37;;;15.30;97.90;;;;;;6298747;28;20464;-60
2021/05/22 10:04:20;;;;;;;2.80;1.93;;;15.20;98.00;;;;;;6299138;28;20468;-61
2021/05/22 10:07:35;;;;;;;2.57;1.73;;;15.20;98.00;;;;;;6298586;28;20469;-61
2021/05/22 10:10:40;;;;;;;1.90;1.70;;;15.20;98.10;;;;;;6298843;28;20492;-59
2021/05/22 10:13:43;;;;;;;2.37;1.73;;;15.10;98.40;;;;;;6299350;28;20485;-60
2021/05/22 10:16:46;;;;;;;3.37;1.73;;;15.10;98.80;;;;;;6298627;28;20473;-60
2021/05/22 10:19:49;;;;;;;1.77;1.67;;;15.20;99.00;;;;;;6298671;28;20477;-59
2021/05/22 10:22:52;;;;;;;2.50;1.97;;;15.10;99.10;;;;;;6289182;28;20477;-60
2021/05/22 10:25:57;;;;;;;2.60;1.80;;;15.10;99.10;;;;;;6320362;28;20472;-60
2021/05/22 10:29:00;;;;;;;4.33;3.60;;;15.20;99.40;;;;;;6305257;28;20476;-57
2021/05/22 10:32:04;;;;;;;3.93;3.63;;;15.30;99.10;;;;;;6295408;28;20484;-57
2021/05/22 10:35:12;;;;;;;3.43;2.30;;;15.40;98.60;;;;;;6295027;28;20939;-57
2021/05/22 10:38:39;;;;;;;3.80;3.50;;;15.40;98.20;;;;;;6302773;28;20444;-56
2021/05/22 10:41:42;;;;;;;2.30;1.60;;;15.50;97.90;;;;;;6303138;28;20480;-56
2021/05/22 10:44:45;;;;;;;23.47;20.30;;;15.70;98.10;;;;;;6302733;28;20788;-58
2021/05/22 10:47:48;;;;;;;3.27;2.97;;;15.70;98.20;;;;;;6302925;28;20475;-57
2021/05/22 10:50:52;;;;;;;2.17;1.80;;;15.90;97.80;;;;;;6302548;28;20488;-58
2021/05/22 10:53:56;;;;;;;2.70;2.00;;;15.90;97.40;;;;;;6302893;28;20976;-58
2021/05/22 10:57:00;;;;;;;2.83;1.90;;;15.90;97.30;;;;;;6302380;28;20465;-57
2021/05/22 11:00:21;;;;;;;3.57;1.93;;;15.80;96.80;;;;;;6303128;28;20492;-57
2021/05/22 11:03:24;;;;;;;2.23;1.70;;;15.80;96.70;;;;;;6302389;28;20465;-57
2021/05/22 11:06:39;;;;;;;4.33;2.50;;;15.80;96.60;;;;;;6302640;28;20530;-58
2021/05/22 11:09:58;;;;;;;2.23;1.97;;;15.90;96.90;;;;;;6302294;28;20508;-57
2021/05/22 11:13:02;;;;;;;2.43;2.23;;;15.90;96.80;;;;;;6302467;28;20915;-58
2021/05/22 11:16:07;;;;;;;3.30;3.10;;;16.00;97.40;;;;;;6302287;28;20566;-57
2021/05/22 11:19:10;;;;;;;2.20;2.00;;;16.10;97.10;;;;;;6302253;28;20488;-57
2021/05/22 11:22:15;;;;;;;2.30;1.70;;;16.30;96.40;;;;;;6302136;28;20475;-57
2021/05/22 11:25:19;;;;;;;3.33;2.37;;;16.30;96.00;;;;;;6309139;28;20473;-57
2021/05/22 11:28:26;;;;;;;1.77;1.67;;;16.40;95.80;;;;;;6327035;28;20479;-57
2021/05/22 11:31:32;;;;;;;1.80;1.70;;;16.50;95.40;;;;;;6303506;28;20481;-57
2021/05/22 11:34:35;;;;;;;2.00;1.47;;;16.60;95.40;;;;;;6276788;28;20492;-57
2021/05/22 11:37:38;;;;;;;2.40;2.20;;;16.70;95.20;;;;;;6289650;28;20516;-57
2021/05/22 11:40:48;;;;;;;4.10;2.27;;;16.80;94.80;;;;;;6300455;28;20936;-57
2021/05/22 11:44:06;;;;;;;2.60;1.83;;;17.00;94.70;;;;;;6301813;28;20520;-56
2021/05/22 11:47:09;;;;;;;2.97;2.10;;;17.20;94.80;;;;;;6301327;28;20458;-57
2021/05/22 11:50:24;;;;;;;2.13;1.80;;;17.60;94.40;;;;;;6302144;28;20452;-57
2021/05/22 11:53:28;;;;;;;3.37;1.90;;;17.90;93.80;;;;;;6300943;28;20476;-57
2021/05/22 11:56:33;;;;;;;2.03;1.83;;;18.00;92.60;;;;;;6301738;28;20941;-57
2021/05/22 11:59:38;;;;;;;2.57;1.70;;;18.10;92.20;;;;;;6300706;28;20496;-57
2021/05/22 12:02:42;;;;;;;2.43;1.97;;;18.20;92.10;;;;;;6301419;28;20461;-57
2021/05/22 12:05:44;;;;;;;3.03;1.70;;;18.30;91.10;;;;;;6301178;28;20595;-57
2021/05/22 12:09:01;;;;;;;4.30;2.07;;;18.40;91.20;;;;;;6301536;28;20476;-56
2021/05/22 12:12:09;;;;;;;2.53;1.53;;;18.60;91.00;;;;;;6300670;28;20871;-56
2021/05/22 12:15:23;;;;;;;2.83;1.87;;;18.70;90.50;;;;;;6300959;28;20465;-57
2021/05/22 12:18:28;;;;;;;4.03;2.80;;;18.80;90.50;;;;;;6300599;28;20235;-57
2021/05/22 12:21:32;;;;;;;1.87;1.77;;;19.00;90.00;;;;;;6301118;28;20480;-55
2021/05/22 12:24:36;;;;;;;1.43;1.33;;;18.90;88.70;;;;;;6309875;28;20218;-58
2021/05/22 12:27:40;;;;;;;3.67;3.37;;;18.90;88.10;;;;;;6325291;28;20233;-56
2021/05/22 12:30:47;;;;;;;2.80;1.90;;;18.90;88.30;;;;;;6321396;28;20786;-57
2021/05/22 12:34:01;;;;;;;2.50;2.03;;;18.80;88.30;;;;;;6299906;28;20485;-57
2021/05/22 12:37:06;;;;;;;4.00;1.70;;;18.70;88.60;;;;;;6299810;28;20480;-57
2021/05/22 12:40:11;;;;;;;2.20;1.73;;;18.60;88.90;;;;;;6275578;28;20496;-57
2021/05/22 12:43:15;;;;;;;2.73;1.90;;;18.50;89.80;;;;;;6275443;28;20479;-55
2021/05/22 12:46:26;;;;;;;1.97;1.50;;;18.30;90.10;;;;;;6275044;28;20477;-56
2021/05/22 12:49:31;;;;;;;1.63;1.53;;;18.10;90.00;;;;;;6274687;28;20976;-54
2021/05/22 12:52:48;;;;;;;2.13;1.97;;;18.00;90.00;;;;;;6275119;28;20484;-55
2021/05/22 12:56:05;;;;;;;2.50;1.77;;;18.10;90.30;;;;;;6275202;28;20461;-55
2021/05/22 12:59:15;;;;;;;1.70;1.60;;;18.10;90.20;;;;;;6275346;28;20449;-56
2021/05/22 13:02:20;;;;;;;1.90;1.50;;;18.30;89.80;;;;;;6274881;28;20772;-55
2021/05/22 13:05:26;;;;;;;3.80;1.60;;;18.50;88.90;;;;;;6275267;28;20415;-55
2021/05/22 13:08:29;;;;;;;3.00;2.23;;;18.70;87.60;;;;;;6275146;28;20458;-55
2021/05/22 13:11:31;;;;;;;4.70;2.20;;;18.70;86.60;;;;;;6274619;28;20466;-56
2021/05/22 13:14:45;;;;;;;2.80;2.30;;;18.80;86.50;;;;;;6274578;28;20239;-55
2021/05/22 13:17:49;;;;;;;1.80;1.60;;;18.90;86.60;;;;;;6274731;28;20505;-55
2021/05/22 13:20:53;;;;;;;1.57;1.47;;;18.90;86.70;;;;;;6274905;28;20235;-56
2021/05/22 13:23:56;;;;;;;2.00;1.80;;;18.90;86.50;;;;;;6289517;28;20472;-55
2021/05/22 13:27:08;;;;;;;1.97;1.80;;;18.90;86.10;;;;;;6320172;28;20475;-55
2021/05/22 13:30:22;;;;;;;2.10;1.90;;;18.80;85.90;;;;;;6324281;28;20234;-56
2021/05/22 13:33:36;;;;;;;2.40;1.90;;;18.70;86.60;;;;;;6299266;28;20999;-56
2021/05/22 13:36:39;;;;;;;2.20;1.93;;;18.50;87.40;;;;;;6299149;28;20948;-56
2021/05/22 13:39:42;;;;;;;1.93;1.73;;;18.50;87.90;;;;;;6298733;28;20473;-56
2021/05/22 13:42:45;;;;;;;2.40;1.93;;;18.30;88.30;;;;;;6299192;28;20464;-56
2021/05/22 13:45:49;;;;;;;2.23;1.60;;;18.20;89.20;;;;;;6298893;28;20533;-56
2021/05/22 13:48:52;;;;;;;2.93;2.07;;;18.20;90.00;;;;;;6298720;28;20469;-56
2021/05/22 13:51:55;;;;;;;2.57;2.37;;;18.10;90.00;;;;;;6299360;28;20469;-60
2021/05/22 13:54:57;;;;;;;4.07;1.90;;;18.10;90.00;;;;;;6298718;28;20975;-60
2021/05/22 13:58:00;;;;;;;3.00;1.87;;;18.10;90.30;;;;;;6299018;28;20476;-66
2021/05/22 14:01:04;;;;;;;2.50;1.93;;;18.20;90.50;;;;;;6298324;28;20481;-66
2021/05/22 14:04:08;;;;;;;2.50;2.30;;;18.20;90.70;;;;;;6303339;28;20465;-66
2021/05/22 14:07:11;;;;;;;1.90;1.80;;;18.30;90.90;;;;;;6303705;28;20476;-66
2021/05/22 14:10:15;;;;;;;1.90;1.80;;;18.30;91.10;;;;;;6303853;28;20496;-66
2021/05/22 14:13:17;;;;;;;2.40;1.80;;;18.40;90.80;;;;;;6303389;28;20687;-66
2021/05/22 14:16:21;;;;;;;2.57;2.37;;;18.50;90.70;;;;;;6303704;28;20479;-57
2021/05/22 14:19:24;;;;;;;2.60;2.00;;;18.60;90.00;;;;;;6303571;28;20480;-66
2021/05/22 14:22:27;;;;;;;2.60;2.10;;;18.70;89.80;;;;;;6303569;28;20464;-61
2021/05/22 14:25:30;;;;;;;2.73;2.03;;;18.70;89.60;;;;;;6321384;28;20553;-61
2021/05/22 14:28:33;;;;;;;2.77;1.80;;;18.80;89.10;;;;;;6328217;28;20479;-61
2021/05/22 14:31:37;;;;;;;2.10;1.77;;;18.90;89.10;;;;;;6318592;28;20570;-55
2021/05/22 14:34:40;;;;;;;5.70;1.73;;;19.00;87.60;;;;;;6293708;28;20234;-55
2021/05/22 14:37:42;;;;;;;4.00;1.83;;;19.20;86.90;;;;;;6303271;28;20471;-59
2021/05/22 14:40:45;;;;;;;2.40;2.20;;;19.40;85.80;;;;;;6302815;28;20477;-65
2021/05/22 14:43:48;;;;;;;1.73;1.60;;;19.50;85.00;;;;;;6303726;28;20233;-66
2021/05/22 14:46:52;;;;;;;3.10;1.70;;;19.60;85.20;;;;;;6302717;28;20241;-64
2021/05/22 14:49:54;;;;;;;1.90;1.10;;;19.70;84.90;;;;;;6303238;28;20679;-66
2021/05/22 14:52:58;;;;;;;2.20;2.10;;;19.80;85.00;;;;;;6302917;28;20227;-67
2021/05/22 14:56:02;;;;;;;3.10;1.83;;;19.70;84.90;;;;;;6298374;28;20227;-67
2021/05/22 14:59:05;;;;;;;2.60;1.77;;;19.60;83.80;;;;;;6278746;28;20263;-66
2021/05/22 15:02:09;;;;;;;2.80;1.60;;;19.50;83.80;;;;;;6277570;28;20234;-64
2021/05/22 15:05:12;;;;;;;3.30;1.80;;;19.50;84.60;;;;;;6278545;28;20200;-66
2021/05/22 15:08:15;;;;;;;1.93;1.47;;;19.40;83.20;;;;;;6278200;28;20456;-64
2021/05/22 15:11:18;;;;;;;4.43;2.00;;;19.50;83.20;;;;;;6277749;28;20231;-63
2021/05/22 15:14:21;;;;;;;2.23;1.90;;;19.50;82.80;;;;;;6277229;28;20238;-62
2021/05/22 15:17:24;;;;;;;3.10;2.63;;;19.50;83.30;;;;;;6277269;28;20236;-61
2021/05/22 15:20:27;;;;;;;3.93;2.80;;;19.50;83.70;;;;;;6277458;28;20288;-63
2021/05/22 15:23:30;;;;;;;3.30;2.67;;;19.50;83.50;;;;;;6285243;28;20464;-63
2021/05/22 15:26:33;;;;;;;3.60;2.30;;;19.50;83.40;;;;;;6327213;28;20237;-61
2021/05/22 15:29:35;;;;;;;2.77;2.10;;;19.40;82.70;;;;;;6327478;28;20241;-63
2021/05/22 15:32:39;;;;;;;3.70;2.20;;;19.30;82.10;;;;;;6308906;28;20231;-63
2021/05/22 15:35:42;;;;;;;3.33;1.90;;;19.30;81.30;;;;;;6292566;28;20234;-65
2021/05/22 15:38:46;;;;;;;4.00;2.00;;;19.30;79.50;;;;;;6302100;28;20237;-63
2021/05/22 15:41:50;;;;;;;3.20;1.70;;;19.20;77.70;;;;;;6301979;28;20569;-63
2021/05/22 15:44:53;;;;;;;1.77;1.67;;;19.20;74.90;;;;;;6302040;28;20233;-64
2021/05/22 15:58:14;;;;;;;1.63;1.30;;;19.10;76.00;;;;;;6300922;28;20230;-72
2021/05/22 16:01:20;;;;;;;4.60;2.00;;;19.10;74.60;;;;;;6300669;28;20243;-68
2021/05/22 16:04:33;;;;;;;2.27;1.50;;;19.00;74.10;;;;;;6301012;28;20238;-66
2021/05/22 16:07:36;;;;;;;1.80;1.47;;;19.00;74.00;;;;;;6300701;28;20983;-69
2021/05/22 16:10:39;;;;;;;2.00;1.67;;;18.90;73.80;;;;;;6300248;28;20226;-67